Time;durP1;ratioP1;P1;durP2;ratioP2;P2;SDS_P1;SDS_P2;PMS_P1;PMS_P2;Temp;Humidity;BMP_temperature;BMP_pressure;BME280_temperature;BME280_humidity;BME280_pressure;Samples;Min_cycle;Max_cycle;Signal;HPM_P1;HPM_P2
2022/05/26 00:01:05;;;;;;;16.98;5.60;;;15.10;99.90;;;;;;4972448;28;20050;-37
2022/05/26 00:03:36;;;;;;;26.38;7.90;;;15.10;99.90;;;;;;4972053;28;20073;-36
2022/05/26 00:06:02;;;;;;;17.88;6.78;;;15.10;99.90;;;;;;4972143;28;20035;-38
2022/05/26 00:08:28;;;;;;;19.08;7.15;;;15.10;99.90;;;;;;4968600;28;20031;-37
2022/05/26 00:10:55;;;;;;;16.45;5.75;;;15.10;99.90;;;;;;4968709;28;20487;-38
2022/05/26 00:13:21;;;;;;;24.58;6.82;;;15.10;99.90;;;;;;4973168;28;20089;-37
2022/05/26 00:15:47;;;;;;;32.55;7.13;;;15.10;99.90;;;;;;4969068;28;20117;-37
2022/05/26 00:18:13;;;;;;;22.15;6.47;;;15.00;99.90;;;;;;4972089;28;20491;-38
2022/05/26 00:20:39;;;;;;;16.48;6.15;;;15.10;99.90;;;;;;4965113;28;20041;-39
2022/05/26 00:23:04;;;;;;;15.48;6.07;;;15.10;99.90;;;;;;4964337;28;20506;-37
2022/05/26 00:25:30;;;;;;;21.13;6.07;;;15.10;99.90;;;;;;4974181;28;20099;-37
2022/05/26 00:27:56;;;;;;;18.27;5.95;;;15.10;99.90;;;;;;4974776;28;20034;-43
2022/05/26 00:30:22;;;;;;;17.38;5.82;;;15.10;99.90;;;;;;4971762;28;20058;-60
2022/05/26 00:32:48;;;;;;;16.38;5.82;;;15.00;99.90;;;;;;4973025;28;20058;-38
2022/05/26 00:35:15;;;;;;;25.02;6.68;;;15.10;99.90;;;;;;4974442;28;20085;-37
2022/05/26 00:37:41;;;;;;;14.75;6.60;;;15.10;99.90;;;;;;4966903;28;20399;-37
2022/05/26 00:40:08;;;;;;;15.38;6.47;;;15.00;99.90;;;;;;4972482;28;20047;-37
2022/05/26 00:42:33;;;;;;;16.52;5.70;;;15.00;99.90;;;;;;4970455;28;20038;-37
2022/05/26 00:44:59;;;;;;;15.60;5.93;;;15.10;99.90;;;;;;4968165;28;20019;-37
2022/05/26 00:47:28;;;;;;;19.33;6.28;;;15.00;99.90;;;;;;4966631;28;20070;-37
2022/05/26 00:49:59;;;;;;;23.30;6.50;;;15.00;99.90;;;;;;4970476;28;20550;-37
2022/05/26 00:52:36;;;;;;;21.50;6.97;;;15.00;99.90;;;;;;4965929;28;20165;-37
2022/05/26 00:55:07;;;;;;;10.48;6.10;;;15.00;99.90;;;;;;4966380;28;20053;-36
2022/05/26 00:57:36;;;;;;;20.08;7.30;;;15.00;99.90;;;;;;4971082;28;20027;-37
2022/05/26 01:00:10;;;;;;;22.67;6.93;;;15.00;99.90;;;;;;4968049;28;21296;-37
2022/05/26 01:02:38;;;;;;;26.70;7.47;;;15.00;99.90;;;;;;4970028;28;20422;-36
2022/05/26 01:05:11;;;;;;;21.42;6.53;;;15.00;99.90;;;;;;4971857;28;20034;-38
2022/05/26 01:07:38;;;;;;;25.92;7.05;;;15.00;99.90;;;;;;4966909;28;20486;-36
2022/05/26 01:10:06;;;;;;;27.90;7.60;;;15.00;99.90;;;;;;4971438;28;20025;-38
2022/05/26 01:12:33;;;;;;;24.95;6.57;;;14.90;99.90;;;;;;4970303;28;20058;-37
2022/05/26 01:15:04;;;;;;;17.83;6.43;;;15.00;99.90;;;;;;4969730;28;20487;-38
2022/05/26 01:17:42;;;;;;;24.63;7.53;;;15.00;99.90;;;;;;4970199;28;20043;-32
2022/05/26 01:20:16;;;;;;;;;;;14.90;99.90;;;;;;4970100;28;20510;-37
2022/05/26 01:23:11;;;;;;;23.33;6.53;;;14.90;99.90;;;;;;4964117;28;20394;-38
2022/05/26 01:25:39;;;;;;;20.90;6.25;;;14.90;99.90;;;;;;4950214;28;20642;-38
2022/05/26 01:28:17;;;;;;;13.45;6.00;;;14.90;99.90;;;;;;4966648;28;20051;-37
2022/05/26 01:30:42;;;;;;;;;;;14.90;99.90;;;;;;4965538;28;20026;-37
2022/05/26 01:33:11;;;;;;;27.48;6.70;;;14.90;99.90;;;;;;4972645;28;20393;-37
2022/05/26 01:35:59;;;;;;;19.13;6.18;;;15.00;99.90;;;;;;4973443;28;20052;-34
2022/05/26 01:38:37;;;;;;;22.70;6.45;;;14.90;99.90;;;;;;4972181;28;20110;-36
2022/05/26 01:41:05;;;;;;;16.50;5.90;;;14.90;99.90;;;;;;4972245;28;20035;-33
2022/05/26 01:43:36;;;;;;;24.40;6.50;;;14.90;99.90;;;;;;4974063;28;20479;-38
2022/05/26 01:46:14;;;;;;;27.90;7.90;;;14.90;99.90;;;;;;4974034;28;20046;-36
2022/05/26 01:48:43;;;;;;;14.40;6.13;;;14.90;99.90;;;;;;4972598;28;20034;-33
2022/05/26 01:51:12;;;;;;;16.00;5.90;;;14.90;99.90;;;;;;4973187;28;20447;-39
2022/05/26 01:53:46;;;;;;;35.50;7.00;;;14.90;99.90;;;;;;4971961;28;20541;-39
2022/05/26 01:56:44;;;;;;;29.48;6.53;;;14.90;99.90;;;;;;4971013;28;20084;-38
2022/05/26 01:59:17;;;;;;;18.65;6.22;;;14.90;99.90;;;;;;4972904;28;20109;-36
2022/05/26 02:01:49;;;;;;;14.95;5.82;;;14.90;99.90;;;;;;4971207;28;20027;-37
2022/05/26 02:04:22;;;;;;;15.45;5.78;;;14.90;99.90;;;;;;4972070;28;20483;-38
2022/05/26 02:06:58;;;;;;;19.33;6.13;;;14.90;99.90;;;;;;4973151;28;20033;-36
2022/05/26 02:09:29;;;;;;;24.30;5.30;;;14.90;99.90;;;;;;4972707;28;20031;-36
2022/05/26 02:12:03;;;;;;;24.35;5.38;;;15.00;99.90;;;;;;4970036;28;20329;-32
2022/05/26 02:14:42;;;;;;;20.52;5.45;;;14.90;99.90;;;;;;4967571;28;20034;-36
2022/05/26 02:17:38;;;;;;;22.23;4.97;;;14.90;99.90;;;;;;4970972;28;20057;-35
2022/05/26 02:20:24;;;;;;;15.57;4.53;;;14.90;99.90;;;;;;4967846;28;20503;-50
2022/05/26 02:23:06;;;;;;;16.77;4.28;;;14.90;99.90;;;;;;4969002;28;20114;-36
2022/05/26 02:25:33;;;;;;;18.38;4.22;;;14.90;99.90;;;;;;4973482;28;20113;-35
2022/05/26 02:27:59;;;;;;;20.48;5.30;;;14.90;99.90;;;;;;4972988;28;20035;-33
2022/05/26 02:30:30;;;;;;;22.23;4.10;;;14.90;99.90;;;;;;4969049;28;20110;-35
2022/05/26 02:32:58;;;;;;;25.42;5.32;;;14.90;99.90;;;;;;4970725;28;20069;-36
2022/05/26 02:35:33;;;;;;;26.13;5.47;;;15.00;99.90;;;;;;4972612;28;20034;-36
2022/05/26 02:38:07;;;;;;;18.65;4.28;;;14.90;99.90;;;;;;4971274;28;20499;-37
2022/05/26 02:40:33;;;;;;;11.40;2.92;;;15.00;99.90;;;;;;4971421;28;20043;-36
2022/05/26 02:43:13;;;;;;;16.98;4.25;;;14.90;99.90;;;;;;4986888;28;20404;-45
2022/05/26 02:45:48;;;;;;;27.27;3.97;;;15.00;99.90;;;;;;4971637;28;20042;-36
2022/05/26 02:48:25;;;;;;;25.83;3.58;;;15.00;99.90;;;;;;4972554;28;20030;-36
2022/05/26 02:50:57;;;;;;;22.75;4.03;;;15.00;99.90;;;;;;4970593;28;20043;-35
2022/05/26 02:53:50;;;;;;;20.35;3.35;;;15.00;99.90;;;;;;4983276;28;20509;-38
2022/05/26 02:56:37;;;;;;;21.40;3.97;;;15.00;99.90;;;;;;4966662;28;20537;-43
2022/05/26 02:59:30;;;;;;;12.27;3.70;;;15.00;99.90;;;;;;4967971;28;20015;-36
2022/05/26 03:02:16;;;;;;;21.42;3.30;;;15.00;99.90;;;;;;4970972;28;20443;-36
2022/05/26 03:04:48;;;;;;;13.80;3.10;;;15.00;99.90;;;;;;4972506;28;20471;-37
2022/05/26 03:07:22;;;;;;;28.58;3.92;;;15.00;99.90;;;;;;4971160;28;20092;-37
2022/05/26 03:09:48;;;;;;;31.70;4.50;;;15.00;99.90;;;;;;4964850;28;20115;-36
2022/05/26 03:12:24;;;;;;;21.95;3.58;;;14.90;99.90;;;;;;4971755;28;20129;-36
2022/05/26 03:14:50;;;;;;;24.15;3.58;;;15.00;99.90;;;;;;4966971;28;20085;-37
2022/05/26 03:17:15;;;;;;;25.02;4.72;;;15.00;99.90;;;;;;4970087;28;20495;-37
2022/05/26 03:19:41;;;;;;;23.45;3.95;;;15.00;99.90;;;;;;4970895;28;20030;-36
2022/05/26 03:22:07;;;;;;;15.27;3.42;;;15.00;99.90;;;;;;4966729;28;20034;-38
2022/05/26 03:24:33;;;;;;;23.23;3.05;;;15.00;99.90;;;;;;4971744;28;20506;-38
2022/05/26 03:26:58;;;;;;;16.92;3.00;;;15.00;99.90;;;;;;4972202;28;20078;-37
2022/05/26 03:29:24;;;;;;;7.10;2.88;;;14.90;99.90;;;;;;4972676;28;20034;-36
2022/05/26 03:31:49;;;;;;;19.38;3.83;;;14.90;99.90;;;;;;4972098;28;20113;-37
2022/05/26 03:42:27;;;;;;;12.93;2.70;;;15.00;99.90;;;;;;4968126;28;20045;-38
2022/05/26 03:44:53;;;;;;;10.30;1.85;;;15.00;99.90;;;;;;4967470;28;20117;-38
2022/05/26 03:47:19;;;;;;;11.70;2.92;;;15.00;99.90;;;;;;4968031;28;20069;-32
2022/05/26 03:49:44;;;;;;;12.20;2.00;;;15.00;99.90;;;;;;4972153;28;20389;-38
2022/05/26 03:52:10;;;;;;;11.02;2.67;;;15.00;99.90;;;;;;4972238;28;20027;-38
2022/05/26 03:54:36;;;;;;;9.43;2.47;;;15.00;99.90;;;;;;4968910;28;20497;-31
2022/05/26 03:57:03;;;;;;;15.38;2.83;;;14.90;99.90;;;;;;4969948;28;20038;-32
2022/05/26 03:59:29;;;;;;;11.40;2.83;;;14.90;99.90;;;;;;4971168;28;20019;-33
2022/05/26 04:01:55;;;;;;;9.93;2.17;;;14.90;99.90;;;;;;4969603;28;20384;-28
2022/05/26 04:04:20;;;;;;;9.18;1.73;;;15.00;99.90;;;;;;4968812;28;20471;-29
2022/05/26 04:06:46;;;;;;;4.75;1.70;;;15.00;99.90;;;;;;4967103;28;20040;-28
2022/05/26 04:09:12;;;;;;;7.18;1.70;;;15.00;99.90;;;;;;4969762;28;20539;-35
2022/05/26 04:11:37;;;;;;;8.38;2.40;;;15.00;99.90;;;;;;4971786;28;20483;-31
2022/05/26 04:14:03;;;;;;;14.10;2.72;;;15.00;99.90;;;;;;4969179;28;20023;-34
2022/05/26 04:16:28;;;;;;;9.98;1.90;;;15.00;99.90;;;;;;4960238;28;20484;-33
2022/05/26 04:18:54;;;;;;;4.38;1.38;;;15.00;99.90;;;;;;4964645;28;20043;-32
2022/05/26 04:21:20;;;;;;;5.60;2.00;;;15.00;99.90;;;;;;4970918;28;20051;-30
2022/05/26 04:23:46;;;;;;;4.18;1.50;;;15.00;99.90;;;;;;4958152;28;20027;-28
2022/05/26 04:26:12;;;;;;;9.15;1.80;;;15.10;99.90;;;;;;4970265;28;20046;-31
2022/05/26 04:28:38;;;;;;;6.82;1.33;;;15.10;99.90;;;;;;4969393;28;20097;-32
2022/05/26 04:31:04;;;;;;;14.50;2.25;;;15.10;99.90;;;;;;4971932;28;20027;-31
2022/05/26 04:33:30;;;;;;;14.38;1.95;;;15.10;99.90;;;;;;4971063;28;20054;-31
2022/05/26 04:35:56;;;;;;;10.77;2.53;;;15.10;99.90;;;;;;4967204;28;20050;-33
2022/05/26 04:38:22;;;;;;;6.22;1.40;;;15.10;99.90;;;;;;4969813;28;20057;-32
2022/05/26 04:41:04;;;;;;;7.53;2.17;;;15.20;99.90;;;;;;4962391;28;20476;-31
2022/05/26 04:43:33;;;;;;;7.40;1.77;;;15.20;99.90;;;;;;4968169;28;20480;-28
2022/05/26 04:45:59;;;;;;;7.10;1.48;;;15.20;99.90;;;;;;4967494;28;20035;-29
2022/05/26 04:48:25;;;;;;;9.82;1.95;;;15.20;99.90;;;;;;4964654;28;20115;-32
2022/05/26 04:50:51;;;;;;;9.23;1.92;;;15.20;99.90;;;;;;4969259;28;20097;-31
2022/05/26 04:53:18;;;;;;;10.63;1.75;;;15.20;99.90;;;;;;4971853;28;20023;-35
2022/05/26 04:55:44;;;;;;;11.57;2.65;;;15.20;99.90;;;;;;4970778;28;20541;-38
2022/05/26 04:58:10;;;;;;;6.40;1.60;;;15.20;99.90;;;;;;4969637;28;20077;-28
2022/05/26 05:00:36;;;;;;;13.73;2.03;;;15.20;99.90;;;;;;4971629;28;20023;-28
2022/05/26 05:03:01;;;;;;;10.73;2.13;;;15.20;99.90;;;;;;4967316;28;20027;-28
2022/05/26 05:05:27;;;;;;;5.95;1.67;;;15.30;99.90;;;;;;4965134;28;20062;-29
2022/05/26 05:07:53;;;;;;;7.38;1.80;;;15.30;99.90;;;;;;4972055;28;20379;-29
2022/05/26 05:10:19;;;;;;;10.52;1.92;;;15.30;99.90;;;;;;4972660;28;20475;-30
2022/05/26 05:12:48;;;;;;;11.88;2.40;;;15.30;99.90;;;;;;4974329;28;20085;-34
2022/05/26 05:15:21;;;;;;;12.35;2.97;;;15.40;99.90;;;;;;4974699;28;20042;-29
2022/05/26 05:17:47;;;;;;;9.77;2.42;;;15.40;99.90;;;;;;4971229;28;20039;-36
2022/05/26 05:20:13;;;;;;;7.65;2.22;;;15.40;99.90;;;;;;4972992;28;20379;-36
2022/05/26 05:22:45;;;;;;;3.85;2.10;;;15.50;99.90;;;;;;4974191;28;20026;-31
2022/05/26 05:25:28;;;;;;;3.03;1.63;;;15.60;99.90;;;;;;4975234;28;20049;-32
2022/05/26 05:27:56;;;;;;;10.43;2.05;;;15.60;99.90;;;;;;4973187;28;20464;-31
2022/05/26 05:30:29;;;;;;;7.03;1.50;;;15.60;99.90;;;;;;4974243;28;20512;-29
2022/05/26 05:32:58;;;;;;;10.27;2.30;;;15.70;99.90;;;;;;4972028;28;20031;-31
2022/05/26 05:35:28;;;;;;;8.40;1.90;;;15.70;99.90;;;;;;4974716;28;20167;-29
2022/05/26 05:37:56;;;;;;;11.05;1.92;;;15.60;99.90;;;;;;4972873;28;20040;-30
2022/05/26 05:40:21;;;;;;;9.90;1.70;;;15.60;99.90;;;;;;4970983;28;20023;-33
2022/05/26 05:42:48;;;;;;;7.05;1.48;;;15.60;99.90;;;;;;4974144;28;20049;-35
2022/05/26 05:45:14;;;;;;;12.95;2.00;;;15.60;99.90;;;;;;4971827;28;20037;-33
2022/05/26 05:47:39;;;;;;;10.07;1.98;;;15.60;99.90;;;;;;4971684;28;20026;-31
2022/05/26 05:50:06;;;;;;;6.30;2.05;;;15.60;99.90;;;;;;4973997;28;20052;-37
2022/05/26 05:52:32;;;;;;;11.23;2.05;;;15.70;99.90;;;;;;4967402;28;20589;-31
2022/05/26 05:54:58;;;;;;;4.07;1.80;;;15.70;99.90;;;;;;4972588;28;20530;-30
2022/05/26 05:57:24;;;;;;;8.30;1.77;;;15.80;99.90;;;;;;4972548;28;20484;-30
2022/05/26 05:59:50;;;;;;;12.25;2.38;;;15.90;99.90;;;;;;4973197;28;20479;-30
2022/05/26 06:02:15;;;;;;;7.28;1.70;;;16.00;99.90;;;;;;4973814;28;20089;-33
2022/05/26 06:04:44;;;;;;;8.02;1.83;;;16.20;99.90;;;;;;4969241;28;20461;-30
2022/05/26 06:07:18;;;;;;;9.70;2.58;;;16.40;99.90;;;;;;4972187;28;20081;-31
2022/05/26 06:09:44;;;;;;;10.35;2.63;;;16.60;99.90;;;;;;4971650;28;20063;-29
2022/05/26 06:12:11;;;;;;;7.45;1.70;;;16.80;99.90;;;;;;4973036;28;20118;-28
2022/05/26 06:14:37;;;;;;;10.77;2.60;;;16.90;99.90;;;;;;4968733;28;20034;-33
2022/05/26 06:17:05;;;;;;;11.65;3.92;;;16.90;99.90;;;;;;4970860;28;21586;-32
2022/05/26 06:19:31;;;;;;;5.03;1.48;;;17.00;99.90;;;;;;4971606;28;20037;-34
2022/05/26 06:21:56;;;;;;;6.97;1.88;;;17.50;99.90;;;;;;4966706;28;20118;-28
2022/05/26 06:24:25;;;;;;;8.88;1.58;;;18.30;99.90;;;;;;4959656;28;20053;-35
2022/05/26 06:26:51;;;;;;;7.43;1.80;;;18.80;99.90;;;;;;4971557;28;20046;-35
2022/05/26 06:37:29;;;;;;;7.40;1.48;;;24.00;99.90;;;;;;4973474;28;20073;-34
2022/05/26 06:39:56;;;;;;;6.18;1.30;;;24.00;99.90;;;;;;4974373;28;20503;-32
2022/05/26 06:42:25;;;;;;;5.80;1.97;;;22.90;99.90;;;;;;4975114;28;20030;-33
2022/05/26 06:44:51;;;;;;;7.35;1.77;;;21.80;99.90;;;;;;4975498;28;20638;-35
2022/05/26 06:47:21;;;;;;;7.03;1.38;;;20.70;99.90;;;;;;4971536;28;20475;-34
2022/05/26 06:49:47;;;;;;;3.47;1.35;;;20.10;99.90;;;;;;4973217;28;20049;-29
2022/05/26 06:52:14;;;;;;;7.45;1.40;;;20.00;99.90;;;;;;4972474;28;20023;-29
2022/05/26 06:54:43;;;;;;;9.45;1.38;;;20.20;99.90;;;;;;4971406;28;20062;-31
2022/05/26 06:57:10;;;;;;;1.48;1.05;;;20.50;99.90;;;;;;4972468;28;20019;-29
2022/05/26 06:59:37;;;;;;;5.40;0.88;;;21.80;99.90;;;;;;4974563;28;20542;-33
2022/05/26 07:02:04;;;;;;;10.37;1.73;;;23.00;99.90;;;;;;4974858;28;20053;-34
2022/05/26 07:04:30;;;;;;;;;;;23.70;99.90;;;;;;4975099;28;20661;-32
2022/05/26 07:06:56;;;;;;;4.80;1.35;;;24.40;99.90;;;;;;4970617;28;20282;-33
2022/05/26 07:09:24;;;;;;;3.33;1.63;;;24.90;99.90;;;;;;4975057;28;20037;-34
2022/05/26 07:11:49;;;;;;;6.28;1.20;;;24.90;99.90;;;;;;4975724;28;20093;-37
2022/05/26 07:14:15;;;;;;;5.22;1.92;;;24.90;99.90;;;;;;4971333;28;20034;-30
2022/05/26 07:16:42;;;;;;;13.07;1.48;;;24.80;99.80;;;;;;4975010;28;20105;-32
2022/05/26 07:19:08;;;;;;;5.03;1.23;;;24.70;99.90;;;;;;4969061;28;20447;-38
2022/05/26 07:21:34;;;;;;;1.38;1.05;;;24.60;99.50;;;;;;4972627;28;20102;-31
2022/05/26 07:24:00;;;;;;;5.40;1.10;;;24.00;99.90;;;;;;4973919;28;20038;-32
2022/05/26 07:26:28;;;;;;;3.70;1.00;;;23.40;99.90;;;;;;4973133;28;20501;-34
2022/05/26 07:28:54;;;;;;;5.38;1.17;;;23.00;99.90;;;;;;4974342;28;20041;-34
2022/05/26 07:31:20;;;;;;;5.68;1.00;;;22.10;99.90;;;;;;4969844;28;20106;-32
2022/05/26 07:33:47;;;;;;;7.95;1.45;;;21.20;99.90;;;;;;4971979;28;20113;-30
2022/05/26 07:41:44;;;;;;;7.22;1.63;;;20.60;99.90;;;;;;4972907;28;20042;-40
2022/05/26 07:44:10;;;;;;;5.35;1.17;;;20.60;99.90;;;;;;4973037;28;20034;-31
2022/05/26 07:46:36;;;;;;;4.78;1.73;;;20.50;99.90;;;;;;4975128;28;20089;-34
2022/05/26 07:49:02;;;;;;;8.65;1.55;;;20.30;99.90;;;;;;4973875;28;20419;-32
2022/05/26 07:51:28;;;;;;;9.30;1.77;;;20.10;99.90;;;;;;4972687;28;20527;-33
2022/05/26 07:53:53;;;;;;;7.20;1.33;;;19.60;99.90;;;;;;4968597;28;20127;-31
2022/05/26 07:56:20;;;;;;;8.13;2.20;;;19.30;99.90;;;;;;4971583;28;20097;-31
2022/05/26 07:58:47;;;;;;;9.23;1.50;;;19.50;99.90;;;;;;4973738;28;20475;-32
2022/05/26 08:01:13;;;;;;;7.38;2.13;;;20.10;99.90;;;;;;4960569;28;20038;-35
2022/05/26 08:03:39;;;;;;;8.82;2.45;;;20.30;99.90;;;;;;4955377;29;20035;-32
2022/05/26 08:06:06;;;;;;;8.80;1.80;;;20.20;99.90;;;;;;4971282;28;20388;-39
2022/05/26 08:08:32;;;;;;;9.83;3.03;;;19.70;99.90;;;;;;4971050;28;20031;-35
2022/05/26 08:10:58;;;;;;;8.10;1.77;;;19.40;99.90;;;;;;4973231;28;20305;-30
2022/05/26 08:13:23;;;;;;;7.28;1.67;;;19.10;99.90;;;;;;4974108;28;20158;-35
2022/05/26 08:15:50;;;;;;;5.78;1.50;;;18.80;99.90;;;;;;4974848;28;20153;-32
2022/05/26 08:18:16;;;;;;;9.07;1.63;;;18.50;99.90;;;;;;4967635;28;20133;-33
2022/05/26 08:20:42;;;;;;;6.88;1.60;;;18.60;99.90;;;;;;4973043;28;20062;-33
2022/05/26 08:23:07;;;;;;;3.33;1.27;;;18.80;99.90;;;;;;4972844;28;20487;-30
2022/05/26 08:25:34;;;;;;;7.88;1.63;;;18.90;99.90;;;;;;4972412;28;20058;-33
2022/05/26 08:28:00;;;;;;;6.38;1.58;;;19.00;99.90;;;;;;4972437;28;20030;-35
2022/05/26 08:30:26;;;;;;;5.50;2.10;;;19.30;99.90;;;;;;4973201;28;20027;-35
2022/05/26 08:32:55;;;;;;;7.55;1.60;;;19.80;99.90;;;;;;4973539;28;20027;-33
2022/05/26 08:35:21;;;;;;;2.35;0.80;;;20.60;99.90;;;;;;4973420;28;20033;-36
2022/05/26 08:37:47;;;;;;;5.70;1.33;;;21.20;99.90;;;;;;4974431;28;20023;-38
2022/05/26 08:40:37;;;;;;;1.95;1.13;;;21.80;99.90;;;;;;4970629;28;20030;-31
2022/05/26 08:43:12;;;;;;;2.00;1.00;;;22.20;99.90;;;;;;4970551;28;20121;-32
2022/05/26 08:45:45;;;;;;;4.68;1.30;;;22.30;99.90;;;;;;4980018;28;20034;-32
2022/05/26 08:48:17;;;;;;;12.30;2.53;;;22.40;99.90;;;;;;4976090;28;20027;-32
2022/05/26 08:50:43;;;;;;;4.13;1.25;;;22.10;99.90;;;;;;4980482;28;20023;-32
2022/05/26 08:53:21;;;;;;;4.72;1.17;;;21.50;99.90;;;;;;4978803;28;20501;-37
2022/05/26 08:55:50;;;;;;;5.13;1.33;;;21.10;99.90;;;;;;4971319;28;20110;-30
2022/05/26 08:58:19;;;;;;;4.80;1.75;;;21.30;99.90;;;;;;4980502;28;20077;-36
2022/05/26 09:00:47;;;;;;;4.90;1.38;;;21.50;99.90;;;;;;4975597;28;20110;-34
2022/05/26 09:03:45;;;;;;;3.63;1.25;;;21.20;99.90;;;;;;4973140;28;20019;-35
2022/05/26 09:06:20;;;;;;;4.68;1.30;;;20.60;99.90;;;;;;4947824;28;20043;-35
2022/05/26 09:14:28;;;;;;;3.22;1.60;;;20.20;99.90;;;;;;4979238;28;20194;-32
2022/05/26 09:16:59;;;;;;;5.78;1.33;;;20.40;99.90;;;;;;4971934;28;20092;-34
2022/05/26 09:19:29;;;;;;;7.30;1.70;;;20.60;99.90;;;;;;4969568;28;20545;-33
2022/05/26 09:21:55;;;;;;;3.55;1.60;;;20.70;99.90;;;;;;4973927;28;20027;-32
2022/05/26 09:24:31;;;;;;;3.87;1.13;;;20.60;99.90;;;;;;4978560;28;20018;-34
2022/05/26 09:26:58;;;;;;;13.35;1.77;;;20.60;99.90;;;;;;4973977;28;20286;-32
2022/05/26 09:29:30;;;;;;;3.38;1.15;;;20.70;99.90;;;;;;4976797;28;20030;-40
2022/05/26 09:31:58;;;;;;;2.67;1.17;;;20.40;99.90;;;;;;4965892;28;20475;-34
2022/05/26 09:34:26;;;;;;;5.53;1.27;;;20.50;99.90;;;;;;4965999;28;20054;-33
2022/05/26 09:36:56;;;;;;;6.63;1.00;;;20.80;99.90;;;;;;4977287;28;20041;-39
2022/05/26 09:39:30;;;;;;;2.65;1.17;;;20.70;99.90;;;;;;4976291;28;20109;-31
2022/05/26 09:41:57;;;;;;;2.40;0.95;;;20.30;99.90;;;;;;4979315;28;20077;-33
2022/05/26 09:44:41;;;;;;;11.85;2.05;;;19.90;99.90;;;;;;4977226;28;20029;-32
2022/05/26 09:47:20;;;;;;;6.20;1.75;;;19.50;99.90;;;;;;4977226;28;20031;-31
2022/05/26 09:49:50;;;;;;;4.35;1.20;;;19.30;99.90;;;;;;4971022;28;20514;-35
2022/05/26 09:52:19;;;;;;;4.70;1.27;;;19.30;99.90;;;;;;4975304;28;20177;-30
2022/05/26 09:54:46;;;;;;;7.95;2.05;;;19.50;99.90;;;;;;4977365;28;20491;-30
2022/05/26 09:57:17;;;;;;;;;;;19.90;99.90;;;;;;4972508;28;20023;-37
2022/05/26 09:59:44;;;;;;;4.10;1.33;;;20.60;99.90;;;;;;4973234;28;20386;-37
2022/05/26 10:02:41;;;;;;;9.48;1.25;;;21.20;99.90;;;;;;4976934;28;20476;-32
2022/05/26 10:05:07;;;;;;;;;;;21.70;99.90;;;;;;4970726;28;20054;-33
2022/05/26 10:08:01;;;;;;;2.38;0.77;;;21.90;99.90;;;;;;4972627;28;20351;-33
2022/05/26 10:10:37;;;;;;;3.03;0.80;;;21.90;99.90;;;;;;4965865;28;20491;-33
2022/05/26 10:13:09;;;;;;;5.60;0.90;;;21.80;99.90;;;;;;4970978;28;20030;-33
2022/05/26 10:16:05;;;;;;;2.80;1.15;;;21.50;99.90;;;;;;4970009;28;20035;-29
2022/05/26 10:19:16;;;;;;;3.73;1.23;;;21.60;99.90;;;;;;4973776;28;20522;-37
2022/05/26 10:22:14;;;;;;;8.43;1.20;;;21.90;99.90;;;;;;4968037;28;20321;-37
2022/05/26 10:25:01;;;;;;;4.68;0.88;;;22.40;99.90;;;;;;4972038;28;20033;-35
2022/05/26 10:27:46;;;;;;;;;;;23.00;99.90;;;;;;4970665;28;20031;-33
2022/05/26 10:30:49;;;;;;;2.50;1.02;;;23.00;99.90;;;;;;4975054;28;19912;-33
2022/05/26 10:33:35;;;;;;;3.78;0.90;;;23.20;99.10;;;;;;4974068;28;20026;-37
2022/05/26 10:36:04;;;;;;;5.97;1.10;;;23.80;99.10;;;;;;4972439;28;20471;-30
2022/05/26 10:39:11;;;;;;;5.47;0.82;;;24.00;98.20;;;;;;4971153;28;20098;-32
2022/05/26 10:41:44;;;;;;;7.65;1.42;;;23.50;98.20;;;;;;4971397;28;20039;-37
2022/05/26 10:44:09;;;;;;;4.68;1.33;;;23.20;99.70;;;;;;4972929;28;20440;-32
2022/05/26 10:46:40;;;;;;;5.63;1.30;;;23.00;99.70;;;;;;4973524;28;20054;-35
2022/05/26 10:49:16;;;;;;;2.67;1.20;;;23.00;99.90;;;;;;4970571;28;20490;-32
2022/05/26 10:51:46;;;;;;;4.70;1.00;;;22.90;99.80;;;;;;4970397;28;20019;-35
2022/05/26 10:54:19;;;;;;;4.13;0.85;;;22.90;99.70;;;;;;4970680;28;20030;-38
2022/05/26 10:56:52;;;;;;;6.03;1.08;;;22.60;99.10;;;;;;4971438;28;20031;-33
2022/05/26 10:59:35;;;;;;;3.33;0.77;;;22.20;99.60;;;;;;4967086;28;20058;-33
2022/05/26 11:02:28;;;;;;;3.03;1.55;;;22.00;99.90;;;;;;4956677;29;20020;-32
2022/05/26 11:05:01;;;;;;;6.05;1.10;;;21.90;99.90;;;;;;4975467;28;20039;-30
2022/05/26 11:07:38;;;;;;;8.13;1.00;;;21.60;99.90;;;;;;4975758;28;20037;-33
2022/05/26 11:10:10;;;;;;;5.97;1.80;;;21.40;99.90;;;;;;4974270;28;20114;-33
2022/05/26 11:13:02;;;;;;;4.10;1.42;;;21.60;99.90;;;;;;4967853;28;20030;-29
2022/05/26 11:18:42;;;;;;;4.10;0.93;;;21.50;99.90;;;;;;4962966;28;20054;-34
2022/05/26 11:21:15;;;;;;;1.83;0.55;;;21.60;99.90;;;;;;4965147;28;20026;-37
2022/05/26 11:23:41;;;;;;;6.47;1.92;;;21.90;99.30;;;;;;4963650;28;20031;-41
2022/05/26 11:26:23;;;;;;;5.85;1.50;;;22.00;99.50;;;;;;4964808;28;20027;-37
2022/05/26 11:28:51;;;;;;;6.60;1.00;;;22.00;99.80;;;;;;4965218;28;20098;-29
2022/05/26 11:37:39;;;;;;;3.47;1.38;;;22.00;99.90;;;;;;4963561;28;20042;-33
2022/05/26 11:40:11;;;;;;;13.63;3.25;;;21.90;99.90;;;;;;4964185;28;20035;-36
2022/05/26 11:42:46;;;;;;;2.40;0.90;;;22.00;99.90;;;;;;4964024;28;20039;-32
2022/05/26 11:45:35;;;;;;;2.28;1.27;;;22.30;99.90;;;;;;4964374;28;20049;-30
2022/05/26 11:48:03;;;;;;;9.20;2.30;;;22.40;99.90;;;;;;4963729;28;20464;-31
2022/05/26 11:50:47;;;;;;;3.67;1.30;;;22.10;99.50;;;;;;4963380;28;20023;-41
2022/05/26 11:53:35;;;;;;;4.82;1.30;;;21.80;99.80;;;;;;4963570;28;20445;-34
2022/05/26 11:56:23;;;;;;;6.47;1.33;;;21.30;99.90;;;;;;4964747;28;20554;-35
2022/05/26 11:59:28;;;;;;;5.13;1.23;;;21.20;99.90;;;;;;4965638;28;20067;-33
2022/05/26 12:01:59;;;;;;;4.70;1.10;;;20.90;99.90;;;;;;4962564;28;20043;-33
2022/05/26 12:04:31;;;;;;;3.22;1.10;;;20.90;99.90;;;;;;4963511;28;20506;-34
2022/05/26 12:07:35;;;;;;;8.10;1.40;;;20.90;99.90;;;;;;4967297;28;20127;-34
2022/05/26 12:10:13;;;;;;;5.50;0.98;;;20.90;99.90;;;;;;4963516;28;20399;-34
2022/05/26 12:12:39;;;;;;;4.40;1.60;;;20.90;99.90;;;;;;4963831;28;20483;-32
2022/05/26 12:15:16;;;;;;;2.38;0.85;;;21.10;99.90;;;;;;4963245;28;20042;-32
2022/05/26 12:17:55;;;;;;;6.43;0.70;;;21.20;99.90;;;;;;4963169;28;20129;-38
2022/05/26 12:20:21;;;;;;;7.00;1.08;;;21.20;99.90;;;;;;4963218;28;20062;-38
2022/05/26 12:22:50;;;;;;;10.77;1.20;;;21.00;99.90;;;;;;4964417;28;20054;-36
2022/05/26 12:25:18;;;;;;;4.07;1.08;;;20.70;99.90;;;;;;4961333;28;20050;-32
2022/05/26 12:28:01;;;;;;;4.03;0.80;;;20.50;99.90;;;;;;4962346;28;20522;-34
2022/05/26 12:31:02;;;;;;;6.57;1.05;;;20.70;99.90;;;;;;4958790;28;20037;-37
2022/05/26 12:34:02;;;;;;;3.00;1.20;;;20.90;99.90;;;;;;4959696;28;20050;-32
2022/05/26 12:36:56;;;;;;;19.67;1.17;;;21.00;99.90;;;;;;4974560;28;20027;-31
2022/05/26 12:39:43;;;;;;;1.73;0.95;;;20.80;99.90;;;;;;4974318;28;20027;-36
2022/05/26 12:42:33;;;;;;;3.35;0.70;;;20.60;99.90;;;;;;4964766;28;20023;-32
2022/05/26 12:45:20;;;;;;;3.47;0.75;;;20.50;99.90;;;;;;4970204;28;20035;-33
2022/05/26 12:48:04;;;;;;;;;;;20.50;99.90;;;;;;4963518;28;20058;-37
2022/05/26 12:50:31;;;;;;;2.30;0.93;;;20.50;99.90;;;;;;4970171;28;20362;-30
2022/05/26 12:52:59;;;;;;;5.35;1.20;;;20.50;99.90;;;;;;4968804;28;20471;-33
2022/05/26 12:55:28;;;;;;;6.30;0.90;;;20.70;99.90;;;;;;4962923;28;20027;-32
2022/05/26 12:58:15;;;;;;;2.15;0.70;;;20.70;99.90;;;;;;4970559;28;20066;-33
2022/05/26 13:00:45;;;;;;;;;;;20.60;99.90;;;;;;4986704;28;20396;-29
2022/05/26 13:03:13;;;;;;;2.47;0.90;;;20.60;99.90;;;;;;4973568;28;19917;-32
2022/05/26 13:05:52;;;;;;;3.40;1.05;;;20.90;99.90;;;;;;4969173;28;20069;-33
2022/05/26 13:08:23;;;;;;;2.63;0.90;;;21.00;99.90;;;;;;4971989;28;20022;-33
2022/05/26 13:10:53;;;;;;;2.85;1.02;;;20.70;99.90;;;;;;4970235;28;20042;-30
2022/05/26 13:13:24;;;;;;;4.45;0.98;;;20.60;99.90;;;;;;4971343;28;20483;-33
2022/05/26 13:15:50;;;;;;;3.63;1.20;;;20.60;99.90;;;;;;4966145;28;20031;-32
2022/05/26 13:18:25;;;;;;;2.20;0.90;;;20.60;99.90;;;;;;4969338;28;20446;-40
2022/05/26 13:20:51;;;;;;;11.63;1.10;;;20.50;99.90;;;;;;4964828;28;20065;-37
2022/05/26 13:23:31;;;;;;;4.18;0.60;;;20.50;99.90;;;;;;4971370;28;20023;-32
2022/05/26 13:26:00;;;;;;;1.27;0.88;;;20.60;99.90;;;;;;4974215;28;20023;-38
2022/05/26 13:28:29;;;;;;;1.10;0.50;;;20.60;99.90;;;;;;4974908;28;20555;-42
2022/05/26 13:33:42;;;;;;;4.13;0.73;;;20.90;99.90;;;;;;4976939;28;20034;-35
2022/05/26 13:36:19;;;;;;;6.38;1.05;;;21.10;99.90;;;;;;4977382;28;20023;-32
2022/05/26 13:38:48;;;;;;;3.13;0.82;;;21.00;99.90;;;;;;4975675;28;20062;-33
2022/05/26 13:41:28;;;;;;;4.85;1.02;;;21.00;99.90;;;;;;4975308;28;20502;-36
2022/05/26 13:43:55;;;;;;;2.30;0.95;;;20.90;99.90;;;;;;4973816;28;20031;-31
2022/05/26 13:46:38;;;;;;;4.00;1.30;;;20.80;99.90;;;;;;4971702;28;20392;-37
2022/05/26 13:49:36;;;;;;;5.13;1.20;;;20.80;99.90;;;;;;4973507;28;20102;-36